Aviation Digital Data Service (ADDS)

Output produced by METARs form (1704 UTC 03 June 2020)
found at http://www.aviationweather.gov/metar/data/
 
Forecast for: AMD
Text: TAF AMD EDDC 031517Z 0315/0412 11007KT CAVOK
Forecast period: 1500 UTC 03 June 2020 to 1200 UTC 04 June 2020
Forecast type: FROM: standard forecast or significant change
Winds: from the ESE (110 degrees) at 8 MPH (7 knots; 3.6 m/s)
Visibility: 6 or more miles 10+ km)
Ceiling: unknown
Clouds: missing
Weather: NSW  (no significant weather)
Text: PROB30
Forecast period: 1800 to 2100 UTC 03 June 2020
Forecast type: TEMPORARY: The following changes expected for less than half the time period
Winds: from the W (260 degrees) at 23 MPH (20 knots; 10.3 m/s)
gusting to 40 MPH (35 knots; 18.0 m/s)
Visibility: 2.17 miles (3.49 km)
Ceiling: 4000 feet AGL
Clouds: broken clouds at 4000 feet AGL
Weather: TSRA  (rain associated with thunderstorm(s))
Text: TEMPO 0318/0321 26020G35KT 3500 TSRA BKN040CB
Forecast period: 1000 to 1200 UTC 04 June 2020
Forecast type: TEMPORARY: The following changes expected for less than half the time period
Winds: from the SSE (160 degrees) at 17 MPH (15 knots; 7.7 m/s)
gusting to 29 MPH (25 knots; 12.9 m/s)
Visibility: missing
Ceiling: unknown
Clouds: missing
Weather: no significant weather forecast for this period